Time;durP1;ratioP1;P1;durP2;ratioP2;P2;SDS_P1;SDS_P2;PMS_P1;PMS_P2;Temp;Humidity;BMP_temperature;BMP_pressure;BME280_temperature;BME280_humidity;BME280_pressure;Samples;Min_cycle;Max_cycle;Signal;HPM_P1;HPM_P2
2022/01/16 00:01:43;;;;;;;3.97;0.20;;;;;;;2.58;54.58;100383.63;1653623;85;21556;-62
2022/01/16 00:06:07;;;;;;;0.40;0.20;;;;;;;2.58;54.27;100396.78;1668014;84;21605;-60
2022/01/16 00:08:34;;;;;;;0.30;0.15;;;;;;;2.58;54.26;100400.27;1666928;84;21047;-59
2022/01/16 00:11:00;;;;;;;3.65;0.40;;;;;;;2.59;54.33;100391.39;1676150;84;21028;-60
2022/01/16 00:13:26;;;;;;;0.70;0.20;;;;;;;2.63;54.59;100401.17;1673591;84;21614;-63
2022/01/16 00:15:52;;;;;;;0.30;0.23;;;;;;;2.62;54.80;100405.61;1611574;87;21581;-60
2022/01/16 00:18:24;;;;;;;1.42;0.65;;;;;;;2.64;54.48;100409.42;1612346;87;21076;-59
2022/01/16 00:20:50;;;;;;;1.37;0.10;;;;;;;2.64;54.58;100397.58;1612152;87;21050;-59
2022/01/16 00:23:28;;;;;;;0.57;0.13;;;;;;;2.67;54.45;100403.37;1630203;86;21530;-59
2022/01/16 00:25:45;;;;;;;1.10;0.30;;;;;;;2.67;54.30;100415.72;1630399;86;21061;-59
2022/01/16 00:30:22;;;;;;;0.33;0.23;;;;;;;2.69;54.22;100405.42;1784479;78;22199;-62
2022/01/16 00:32:48;;;;;;;2.02;0.75;;;;;;;2.65;54.30;100419.80;1747126;80;21049;-58
2022/01/16 00:35:15;;;;;;;0.90;0.20;;;;;;;2.65;54.25;100398.73;1735778;80;21021;-62
2022/01/16 00:37:41;;;;;;;1.67;0.13;;;;;;;2.65;54.20;100391.33;1731555;81;21128;-59
2022/01/16 00:40:10;;;;;;;0.60;0.10;;;;;;;2.63;54.41;100393.27;1734008;81;21271;-60
2022/01/16 00:42:37;;;;;;;0.40;0.10;;;;;;;2.62;54.25;100391.13;1731700;81;21556;-59
2022/01/16 00:45:05;;;;;;;0.30;0.10;;;;;;;2.63;54.51;100401.17;1716558;78;21092;-59
2022/01/16 00:47:32;;;;;;;1.90;0.20;;;;;;;2.62;54.31;100416.59;1714661;83;21005;-60
2022/01/16 00:49:59;;;;;;;1.15;0.20;;;;;;;2.62;54.22;100424.48;1702536;83;21072;-59
2022/01/16 00:52:25;;;;;;;0.57;0.10;;;;;;;2.62;54.28;100418.77;1705312;83;21055;-61
2022/01/16 00:54:51;;;;;;;2.10;0.10;;;;;;;2.63;54.13;100409.89;1704767;83;21016;-59
2022/01/16 00:57:18;;;;;;;1.12;0.10;;;;;;;2.63;54.15;100417.78;1703058;82;21123;-61
2022/01/16 00:59:44;;;;;;;1.42;0.25;;;;;;;2.65;54.04;100399.23;1703733;83;21086;-59
2022/01/16 01:02:10;;;;;;;0.80;0.30;;;;;;;2.63;53.83;100378.80;1715137;83;21033;-59
2022/01/16 01:04:36;;;;;;;0.72;0.20;;;;;;;2.60;53.77;100385.17;1703587;83;21056;-59
2022/01/16 01:07:03;;;;;;;0.70;0.20;;;;;;;2.59;53.89;100378.23;1708428;83;21580;-61
2022/01/16 01:09:29;;;;;;;0.60;0.20;;;;;;;2.59;53.83;100403.73;1704432;83;21068;-60
2022/01/16 01:11:56;;;;;;;0.35;0.10;;;;;;;2.60;53.88;100401.42;1696296;83;21084;-60
2022/01/16 01:14:37;;;;;;;0.35;0.10;;;;;;;2.60;53.63;100405.38;1684105;83;21058;-64
2022/01/16 01:17:01;;;;;;;2.33;0.10;;;;;;;2.60;53.82;100411.95;1687599;82;21045;-58
2022/01/16 01:19:31;;;;;;;0.50;0.40;;;;;;;2.60;54.02;100431.69;1683683;83;21075;-60
2022/01/16 01:21:56;;;;;;;0.60;0.33;;;;;;;2.59;53.96;100413.77;1685552;83;21078;-58
2022/01/16 01:24:25;;;;;;;0.50;0.10;;;;;;;2.59;53.93;100397.15;1657640;80;21603;-59
2022/01/16 01:27:03;;;;;;;0.73;0.10;;;;;;;2.59;54.08;100434.81;1657319;85;21148;-59
2022/01/16 01:29:21;;;;;;;0.87;0.10;;;;;;;2.60;53.83;100440.91;1656087;85;21399;-62
2022/01/16 01:31:49;;;;;;;0.97;0.10;;;;;;;2.55;53.68;100436.05;1656307;85;21103;-65
2022/01/16 01:34:15;;;;;;;1.17;0.10;;;;;;;2.53;53.93;100454.60;1691249;81;20997;-60
2022/01/16 01:36:42;;;;;;;3.05;0.30;;;;;;;2.51;54.01;100432.86;1732373;81;21041;-61
2022/01/16 01:39:08;;;;;;;1.30;0.13;;;;;;;2.49;53.72;100461.10;1731074;81;20998;-58
2022/01/16 01:41:35;;;;;;;0.72;0.10;;;;;;;2.47;53.37;100497.24;1725484;81;21540;-58
2022/01/16 01:52:16;;;;;;;1.73;0.20;;;;;;;2.47;53.65;100323.59;1724629;82;21168;-58
2022/01/16 01:54:43;;;;;;;0.83;0.10;;;;;;;2.47;53.50;100303.03;1721014;81;21066;-58
2022/01/16 01:57:10;;;;;;;0.80;0.10;;;;;;;2.44;53.35;100339.63;1700911;82;20998;-58
2022/01/16 01:59:39;;;;;;;0.50;0.40;;;;;;;2.43;53.33;100339.30;1694750;83;21057;-57
2022/01/16 02:02:07;;;;;;;0.13;0.10;;;;;;;2.40;53.67;100377.70;1697907;83;21033;-58
2022/01/16 02:04:33;;;;;;;0.60;0.30;;;;;;;2.40;53.73;100404.02;1699793;83;20999;-60
2022/01/16 02:06:59;;;;;;;;;;;;;;;2.42;54.08;100404.71;1702351;83;21092;-60
2022/01/16 02:09:26;;;;;;;1.40;0.23;;;;;;;2.45;54.13;100406.23;1696511;83;20166;-58
2022/01/16 02:11:53;;;;;;;1.47;0.53;;;;;;;2.40;54.08;100408.45;1707192;80;20938;-58
2022/01/16 02:14:32;;;;;;;1.30;0.10;;;;;;;2.40;53.96;100434.77;1724513;82;21127;-59
2022/01/16 02:28:19;;;;;;;2.20;0.10;;;;;;;2.37;54.41;100424.00;1654797;85;21152;-58
2022/01/16 02:35:45;;;;;;;1.47;0.33;;;;;;;2.41;54.72;100430.69;1685998;84;21008;-56
2022/01/16 02:38:10;;;;;;;1.73;0.20;;;;;;;2.43;54.72;100434.02;1685753;84;21075;-57
2022/01/16 02:40:41;;;;;;;0.97;0.20;;;;;;;2.41;54.87;100445.16;1681411;84;21537;-57
2022/01/16 02:43:05;;;;;;;0.90;0.10;;;;;;;2.36;54.84;100449.15;1682010;84;21044;-58
2022/01/16 02:45:35;;;;;;;0.28;0.10;;;;;;;2.34;54.98;100466.38;1698748;83;21057;-59
2022/01/16 02:48:07;;;;;;;0.90;0.47;;;;;;;2.39;55.00;100468.59;1713982;83;21042;-58
2022/01/16 02:50:38;;;;;;;0.40;0.10;;;;;;;2.39;55.11;100472.55;1712285;83;21143;-59
2022/01/16 02:53:10;;;;;;;1.20;0.27;;;;;;;2.40;55.24;100484.26;1705527;83;21574;-62
2022/01/16 02:55:40;;;;;;;2.47;0.53;;;;;;;2.40;55.27;100473.73;1710383;82;21210;-61
2022/01/16 02:58:04;;;;;;;2.90;0.30;;;;;;;2.43;55.38;100459.47;1710226;83;21161;-59
2022/01/16 03:00:31;;;;;;;0.82;0.35;;;;;;;2.41;55.37;100468.84;1713396;83;21083;-59
2022/01/16 03:02:57;;;;;;;0.78;0.33;;;;;;;2.40;55.41;100470.28;1711885;83;20967;-58
2022/01/16 03:05:23;;;;;;;0.35;0.20;;;;;;;2.41;55.83;100469.30;1707218;83;20990;-59
2022/01/16 03:07:50;;;;;;;1.55;0.15;;;;;;;2.40;55.69;100472.91;1708308;83;21595;-59
2022/01/16 03:10:46;;;;;;;;;;;;;;;2.37;55.61;100468.72;1714802;83;21467;-58
2022/01/16 03:12:57;;;;;;;1.40;0.20;;;;;;;2.36;55.79;100477.59;1702795;83;20101;-58
2022/01/16 03:15:25;;;;;;;0.93;0.30;;;;;;;2.30;55.83;100488.66;1708286;83;21015;-60
2022/01/16 03:23:12;;;;;;;1.80;0.30;;;;;;;2.31;54.72;100475.34;1696798;83;21086;-59
2022/01/16 03:25:39;;;;;;;0.43;0.10;;;;;;;2.26;54.47;100487.22;1694442;83;21095;-58
2022/01/16 03:28:05;;;;;;;2.98;0.10;;;;;;;2.22;54.29;100485.33;1688276;83;21576;-58
2022/01/16 03:30:31;;;;;;;0.90;0.30;;;;;;;2.19;54.13;100501.39;1695133;83;22181;-59
2022/01/16 03:32:58;;;;;;;0.50;0.10;;;;;;;2.08;54.34;100491.77;1685209;83;21004;-59
2022/01/16 03:35:24;;;;;;;0.65;0.10;;;;;;;2.17;54.34;100501.16;1664407;82;21030;-58
2022/01/16 03:37:50;;;;;;;1.52;0.30;;;;;;;2.14;54.50;100508.34;1652032;84;20991;-58
2022/01/16 03:40:20;;;;;;;0.82;0.10;;;;;;;2.14;54.55;100512.77;1669972;84;21030;-59
2022/01/16 03:42:50;;;;;;;0.63;0.40;;;;;;;2.18;54.51;100511.55;1669017;84;21042;-59
2022/01/16 03:45:17;;;;;;;0.50;0.20;;;;;;;2.20;54.70;100521.45;1669528;84;21129;-58
2022/01/16 03:47:45;;;;;;;2.70;0.53;;;;;;;2.25;54.63;100519.77;1682447;84;21028;-57
2022/01/16 03:50:11;;;;;;;0.67;0.10;;;;;;;2.26;54.80;100520.10;1680106;84;21640;-60
2022/01/16 03:52:38;;;;;;;1.12;0.23;;;;;;;2.29;54.71;100522.48;1664222;84;21581;-58
2022/01/16 03:55:07;;;;;;;0.25;0.10;;;;;;;2.29;54.77;100518.53;1673186;84;21598;-58
2022/01/16 03:57:34;;;;;;;1.07;0.30;;;;;;;2.31;54.74;100523.19;1662453;84;21482;-58
2022/01/16 04:00:00;;;;;;;1.80;0.35;;;;;;;2.30;54.79;100515.78;1673778;84;21507;-59
2022/01/16 04:02:26;;;;;;;0.40;0.23;;;;;;;2.33;54.78;100514.67;1684386;84;21105;-59
2022/01/16 04:04:54;;;;;;;1.53;0.13;;;;;;;2.30;54.93;100508.38;1683863;85;21007;-59
2022/01/16 04:07:26;;;;;;;1.45;0.10;;;;;;;2.26;54.93;100518.33;1679198;84;20986;-59
2022/01/16 04:09:48;;;;;;;1.90;0.30;;;;;;;2.27;54.99;100512.09;1666413;85;21029;-61
2022/01/16 04:12:20;;;;;;;1.57;0.20;;;;;;;2.30;55.30;100508.38;1676104;84;21537;-60
2022/01/16 04:17:15;;;;;;;1.33;0.20;;;;;;;2.32;55.20;100497.24;1661103;85;21038;-59
2022/01/16 04:19:42;;;;;;;1.83;0.40;;;;;;;2.34;55.21;100504.03;1657575;86;21066;-59
2022/01/16 04:22:11;;;;;;;1.53;0.30;;;;;;;2.35;55.66;100498.28;1633131;86;21072;-57
2022/01/16 04:24:39;;;;;;;0.70;0.20;;;;;;;2.31;55.64;100504.77;1643395;86;21540;-60
2022/01/16 04:27:10;;;;;;;1.97;0.67;;;;;;;2.30;55.64;100515.78;1630428;87;21100;-57
2022/01/16 04:29:36;;;;;;;0.73;0.40;;;;;;;2.30;55.73;100520.22;1643870;87;21202;-57
2022/01/16 04:32:05;;;;;;;0.80;0.30;;;;;;;2.31;55.89;100520.06;1644624;87;21026;-59
2022/01/16 04:34:32;;;;;;;1.27;0.40;;;;;;;2.29;56.50;100513.27;1607320;88;21078;-58
2022/01/16 04:36:58;;;;;;;1.05;0.40;;;;;;;2.24;56.67;100520.72;1632667;86;21067;-59
2022/01/16 04:39:31;;;;;;;1.17;0.53;;;;;;;2.18;56.78;100514.67;1634635;87;21502;-60
2022/01/16 04:44:37;;;;;;;0.80;0.23;;;;;;;2.15;56.89;100519.72;1633109;86;21498;-59
2022/01/16 04:47:04;;;;;;;0.72;0.30;;;;;;;2.17;56.90;100516.47;1662439;85;21001;-58
2022/01/16 04:49:30;;;;;;;0.37;0.23;;;;;;;2.17;56.62;100524.82;1662790;85;21206;-58
2022/01/16 04:51:56;;;;;;;0.40;0.30;;;;;;;2.17;56.52;100520.88;1660085;86;21131;-58
2022/01/16 04:54:25;;;;;;;1.05;0.20;;;;;;;2.19;56.55;100522.92;1669818;86;21505;-58
2022/01/16 04:56:53;;;;;;;1.77;0.30;;;;;;;2.21;56.75;100524.94;1671279;86;21469;-58
2022/01/16 04:59:20;;;;;;;1.90;0.63;;;;;;;2.22;56.55;100534.48;1672313;85;20950;-61
2022/01/16 05:01:46;;;;;;;0.72;0.35;;;;;;;2.18;56.65;100529.13;1620964;87;21014;-58
2022/01/16 05:04:12;;;;;;;1.75;0.57;;;;;;;2.14;56.81;100534.64;1618615;88;21120;-59
2022/01/16 05:06:39;;;;;;;0.93;0.42;;;;;;;2.13;56.86;100536.94;1658194;86;21027;-57
2022/01/16 05:09:05;;;;;;;1.37;0.60;;;;;;;2.17;57.01;100538.83;1651592;86;21542;-58
2022/01/16 05:11:33;;;;;;;3.00;0.57;;;;;;;2.21;56.86;100542.86;1659835;84;21581;-58
2022/01/16 05:16:38;;;;;;;2.45;0.45;;;;;;;2.21;56.79;100555.19;1656428;86;21101;-59
2022/01/16 05:19:11;;;;;;;6.20;1.37;;;;;;;2.19;56.74;100557.94;1667657;86;21026;-61
2022/01/16 05:21:40;;;;;;;1.97;0.67;;;;;;;2.18;56.80;100560.20;1665744;84;21595;-59
2022/01/16 05:24:10;;;;;;;3.90;0.97;;;;;;;2.20;57.01;100565.34;1656562;84;20975;-60
2022/01/16 05:26:38;;;;;;;1.43;0.73;;;;;;;2.22;56.91;100556.84;1665872;84;21095;-60
2022/01/16 05:29:06;;;;;;;4.00;0.80;;;;;;;2.24;56.84;100556.22;1662429;84;21506;-59
2022/01/16 05:31:32;;;;;;;2.07;0.60;;;;;;;2.24;56.91;100557.54;1658543;86;21589;-58
2022/01/16 05:33:59;;;;;;;4.05;0.57;;;;;;;2.24;56.84;100569.37;1657348;83;21095;-59
2022/01/16 05:36:25;;;;;;;2.72;0.50;;;;;;;2.23;56.88;100551.94;1624596;87;21055;-60
2022/01/16 05:38:53;;;;;;;1.00;0.30;;;;;;;2.23;56.76;100560.66;1654742;86;20979;-59
2022/01/16 05:41:20;;;;;;;2.20;0.60;;;;;;;2.23;57.03;100562.46;1664000;84;20999;-58
2022/01/16 05:43:46;;;;;;;0.90;0.70;;;;;;;2.17;56.64;100569.53;1655106;86;21046;-59
2022/01/16 05:46:14;;;;;;;0.88;0.50;;;;;;;2.10;57.06;100568.73;1670417;84;21573;-58
2022/01/16 05:48:41;;;;;;;2.90;0.60;;;;;;;2.07;57.03;100572.95;1668645;86;21034;-58
2022/01/16 05:51:08;;;;;;;2.37;0.70;;;;;;;2.09;56.86;100563.59;1663414;84;20971;-60
2022/01/16 05:53:37;;;;;;;1.63;0.43;;;;;;;2.07;56.55;100558.48;1668218;84;21076;-58
2022/01/16 05:56:04;;;;;;;1.90;0.73;;;;;;;2.05;56.88;100560.38;1660162;84;21031;-58
2022/01/16 05:58:30;;;;;;;2.77;0.83;;;;;;;2.05;56.68;100568.27;1659595;84;21067;-58
2022/01/16 06:00:56;;;;;;;1.27;0.45;;;;;;;2.04;56.45;100571.05;1656990;84;20998;-58
2022/01/16 06:03:22;;;;;;;4.28;1.00;;;;;;;2.07;56.55;100576.90;1669097;86;21041;-58
2022/01/16 06:05:49;;;;;;;1.35;0.60;;;;;;;2.09;56.11;100574.97;1669558;84;21550;-59
2022/01/16 06:08:15;;;;;;;3.02;0.68;;;;;;;2.09;56.06;100572.34;1665576;86;21463;-60
2022/01/16 06:10:41;;;;;;;5.30;0.78;;;;;;;2.09;56.21;100578.92;1670556;84;21035;-59
2022/01/16 06:13:08;;;;;;;2.67;0.88;;;;;;;2.10;55.88;100570.53;1686546;84;21310;-59
2022/01/16 06:15:35;;;;;;;2.90;0.87;;;;;;;2.10;55.85;100587.14;1658041;86;21058;-58
2022/01/16 06:18:02;;;;;;;1.70;0.80;;;;;;;2.09;55.48;100596.47;1660919;85;21113;-59
2022/01/16 06:20:29;;;;;;;3.57;0.67;;;;;;;1.98;55.20;100596.06;1666004;84;21664;-59
2022/01/16 06:22:55;;;;;;;2.37;0.55;;;;;;;1.94;55.65;100598.56;1651885;86;21042;-58
2022/01/16 06:25:23;;;;;;;;;;;;;;;1.92;55.71;100601.34;1644371;86;21148;-60
2022/01/16 06:27:49;;;;;;;3.57;0.30;;;;;;;1.93;55.73;100603.48;1648587;86;20194;-60
2022/01/16 06:30:15;;;;;;;2.25;0.50;;;;;;;1.89;55.83;100598.95;1647748;86;21130;-59
2022/01/16 06:32:44;;;;;;;1.50;0.57;;;;;;;1.92;55.64;100608.38;1647153;86;21563;-60
2022/01/16 06:35:10;;;;;;;;;;;;;;;1.94;55.52;100611.70;1636418;86;21527;-58
2022/01/16 06:37:37;;;;;;;3.37;1.13;;;;;;;1.97;55.54;100606.70;1636382;86;20156;-58
2022/01/16 06:40:07;;;;;;;0.90;0.42;;;;;;;1.94;55.44;100611.25;1647294;86;21023;-59
2022/01/16 06:42:37;;;;;;;3.43;1.23;;;;;;;1.94;55.18;100606.45;1654816;86;21514;-61
2022/01/16 06:45:04;;;;;;;2.83;1.00;;;;;;;1.94;55.27;100609.08;1661996;86;21069;-60
2022/01/16 06:47:30;;;;;;;1.77;1.03;;;;;;;1.93;55.15;100612.69;1656954;86;21607;-59
2022/01/16 06:49:57;;;;;;;2.25;1.72;;;;;;;1.91;55.21;100615.92;1654619;86;21015;-63
2022/01/16 06:52:24;;;;;;;3.87;1.17;;;;;;;1.93;55.15;100612.69;1661581;86;21093;-59
2022/01/16 06:54:51;;;;;;;2.60;1.05;;;;;;;1.97;55.10;100612.78;1663867;84;21091;-60
2022/01/16 06:57:17;;;;;;;1.40;0.75;;;;;;;1.99;54.83;100614.80;1669498;86;21013;-61
2022/01/16 06:59:45;;;;;;;3.77;1.70;;;;;;;1.99;54.84;100614.80;1666172;86;21545;-59
2022/01/16 07:02:12;;;;;;;3.30;1.17;;;;;;;1.99;54.81;100617.43;1669574;86;20987;-60
2022/01/16 07:04:40;;;;;;;3.03;1.27;;;;;;;2.00;55.24;100623.06;1665704;86;21071;-58
2022/01/16 07:07:07;;;;;;;3.03;0.90;;;;;;;1.99;55.00;100620.06;1647832;86;21545;-59
2022/01/16 07:09:33;;;;;;;2.77;1.30;;;;;;;2.00;55.08;100623.06;1631419;87;21007;-59
2022/01/16 07:11:59;;;;;;;3.42;0.95;;;;;;;2.02;55.00;100623.77;1646261;86;21603;-58
2022/01/16 07:14:26;;;;;;;3.70;1.10;;;;;;;2.01;54.87;100622.56;1666128;85;21030;-60
2022/01/16 07:16:52;;;;;;;4.77;1.40;;;;;;;2.00;55.10;100623.52;1667360;86;21532;-59
2022/01/16 07:19:18;;;;;;;1.72;0.80;;;;;;;1.98;54.49;100632.87;1664875;86;21069;-58
2022/01/16 07:21:44;;;;;;;2.70;0.75;;;;;;;1.99;54.23;100638.46;1663454;85;21117;-59
2022/01/16 07:24:15;;;;;;;4.97;1.15;;;;;;;1.99;53.75;100633.20;1678277;83;21551;-58
2022/01/16 07:26:43;;;;;;;2.30;1.03;;;;;;;2.01;53.97;100637.86;1681468;83;21062;-60
2022/01/16 07:29:09;;;;;;;4.63;1.10;;;;;;;2.04;53.74;100635.48;1678612;83;21069;-63
2022/01/16 07:31:39;;;;;;;3.12;1.17;;;;;;;2.06;53.60;100643.58;1640252;85;21327;-63
2022/01/16 07:34:07;;;;;;;1.20;0.30;;;;;;;2.04;53.21;100649.45;1687527;82;21070;-61
2022/01/16 07:36:34;;;;;;;3.27;0.50;;;;;;;2.03;53.49;100646.45;1716207;82;21081;-63
2022/01/16 07:39:00;;;;;;;1.87;1.25;;;;;;;2.03;53.45;100654.34;1719206;82;21012;-58
2022/01/16 07:41:26;;;;;;;4.28;1.00;;;;;;;2.05;52.83;100653.73;1653206;84;21035;-61
2022/01/16 07:43:52;;;;;;;2.95;1.00;;;;;;;2.05;52.91;100660.30;1717023;82;21029;-61
2022/01/16 07:46:19;;;;;;;2.08;0.70;;;;;;;2.06;52.97;100658.05;1715251;82;21005;-62
2022/01/16 07:48:45;;;;;;;2.43;0.93;;;;;;;2.08;52.94;100645.60;1718757;82;21565;-62
2022/01/16 07:51:11;;;;;;;1.45;0.53;;;;;;;2.09;52.17;100647.74;1702620;82;21021;-62
2022/01/16 07:53:37;;;;;;;2.75;0.72;;;;;;;2.09;52.22;100643.34;1715230;82;21104;-61
2022/01/16 07:56:05;;;;;;;5.62;1.60;;;;;;;2.07;52.34;100647.04;1651108;84;21580;-60
2022/01/16 07:58:32;;;;;;;4.47;0.60;;;;;;;2.10;52.28;100646.80;1671571;84;21130;-59
2022/01/16 08:00:58;;;;;;;3.45;0.70;;;;;;;2.08;51.66;100639.03;1660579;84;21014;-60
2022/01/16 08:03:25;;;;;;;4.80;1.45;;;;;;;2.05;51.69;100639.27;1687717;84;21052;-62
2022/01/16 08:05:51;;;;;;;;;;;;;;;2.06;51.63;100656.73;1705803;82;21085;-60
2022/01/16 08:08:17;;;;;;;2.23;1.23;;;;;;;2.09;51.54;100657.80;1713296;82;20161;-60
2022/01/16 08:10:45;;;;;;;1.17;0.57;;;;;;;2.06;51.40;100646.21;1703448;82;21553;-61
2022/01/16 08:13:11;;;;;;;1.40;0.82;;;;;;;2.09;51.40;100651.23;1707732;82;21068;-61
2022/01/16 08:15:37;;;;;;;1.92;0.42;;;;;;;2.13;51.14;100667.59;1701727;83;21529;-62
2022/01/16 08:18:04;;;;;;;5.20;1.03;;;;;;;2.16;50.84;100677.02;1716044;82;21111;-61
2022/01/16 08:20:30;;;;;;;2.77;0.40;;;;;;;2.19;50.52;100675.47;1708920;82;21037;-65
2022/01/16 08:22:56;;;;;;;0.85;0.60;;;;;;;2.19;50.28;100664.45;1714168;82;20997;-62
2022/01/16 08:25:25;;;;;;;1.35;0.30;;;;;;;2.19;50.30;100661.83;1708767;82;21620;-62
2022/01/16 08:27:51;;;;;;;2.30;0.40;;;;;;;2.20;50.04;100658.22;1709205;82;21632;-63
2022/01/16 08:30:18;;;;;;;0.42;0.40;;;;;;;2.21;49.83;100655.13;1634582;85;21087;-64
2022/01/16 08:32:46;;;;;;;5.00;0.75;;;;;;;2.19;49.59;100659.19;1707363;83;21572;-63
2022/01/16 08:35:13;;;;;;;1.87;0.47;;;;;;;2.17;49.70;100657.63;1711629;82;21548;-64
2022/01/16 08:37:40;;;;;;;1.87;0.60;;;;;;;2.13;49.63;100645.24;1710745;82;21484;-63
2022/01/16 08:40:09;;;;;;;3.53;0.30;;;;;;;2.09;49.04;100668.78;1705367;82;21505;-62
2022/01/16 08:42:36;;;;;;;2.90;0.83;;;;;;;2.10;49.11;100669.97;1670384;84;21038;-67
2022/01/16 08:45:04;;;;;;;0.80;0.23;;;;;;;2.11;48.77;100678.69;1669641;84;20998;-65
2022/01/16 08:47:32;;;;;;;4.43;0.30;;;;;;;2.13;49.25;100674.17;1672821;85;21075;-63
2022/01/16 08:49:59;;;;;;;2.17;0.78;;;;;;;2.16;48.95;100677.84;1673322;84;21061;-63
2022/01/16 08:52:26;;;;;;;4.83;0.50;;;;;;;2.16;49.23;100659.92;1643169;85;21099;-70
2022/01/16 08:54:52;;;;;;;2.03;0.20;;;;;;;2.18;49.20;100660.63;1650228;85;21055;-75
2022/01/16 08:57:18;;;;;;;2.35;0.72;;;;;;;2.20;49.04;100658.70;1705910;82;21044;-62
2022/01/16 08:59:44;;;;;;;0.42;0.20;;;;;;;2.17;48.79;100657.63;1714004;82;21009;-64
2022/01/16 09:02:11;;;;;;;0.95;0.30;;;;;;;2.12;48.64;100661.48;1667300;84;21045;-68
2022/01/16 09:04:38;;;;;;;1.37;0.40;;;;;;;2.10;49.30;100652.06;1682784;84;21057;-65
2022/01/16 09:07:05;;;;;;;1.42;0.45;;;;;;;2.09;49.41;100632.83;1660658;84;21092;-64
2022/01/16 09:09:31;;;;;;;3.37;0.20;;;;;;;2.12;48.98;100633.86;1661582;84;21381;-67
2022/01/16 09:12:00;;;;;;;1.17;0.20;;;;;;;2.09;48.97;100632.83;1668512;84;21529;-62
2022/01/16 09:14:26;;;;;;;4.90;0.20;;;;;;;2.11;49.40;100633.98;1675241;84;21181;-63
2022/01/16 09:16:52;;;;;;;0.80;0.30;;;;;;;2.16;49.30;100629.68;1703166;82;21109;-68
2022/01/16 09:19:18;;;;;;;2.05;0.30;;;;;;;2.21;49.73;100625.70;1706688;82;21533;-66
2022/01/16 09:21:44;;;;;;;1.70;0.47;;;;;;;2.30;49.82;100628.06;1709860;82;21537;-64
2022/01/16 09:24:10;;;;;;;1.80;0.20;;;;;;;2.36;49.58;100624.09;1708982;82;21076;-68
2022/01/16 09:26:37;;;;;;;;;;;;;;;1.99;49.25;100558.27;1669637;84;21415;-65
2022/01/16 09:29:03;;;;;;;3.93;0.33;;;;;;;2.42;49.32;100630.97;1678446;84;20194;-64
2022/01/16 09:31:30;;;;;;;;;;;;;;;2.39;49.06;100625.95;1680746;84;21743;-63
2022/01/16 09:33:56;;;;;;;0.90;0.23;;;;;;;2.04;49.44;100553.97;1661232;83;20272;-64
2022/01/16 09:36:23;;;;;;;0.90;0.33;;;;;;;2.39;49.43;100614.12;1679797;84;21035;-65
2022/01/16 09:38:49;;;;;;;2.35;1.00;;;;;;;2.43;49.41;100606.34;1711308;82;21149;-65
2022/01/16 09:41:15;;;;;;;0.78;0.53;;;;;;;2.46;49.35;100611.33;1717532;82;21090;-66
2022/01/16 09:43:43;;;;;;;2.08;1.10;;;;;;;2.44;49.52;100608.00;1686077;83;21312;-63
2022/01/16 09:46:10;;;;;;;1.77;0.97;;;;;;;2.42;50.03;100607.78;1712179;82;21024;-65
2022/01/16 09:48:35;;;;;;;2.05;0.53;;;;;;;2.42;49.95;100602.52;1654423;85;21047;-77
2022/01/16 09:51:02;;;;;;;1.05;0.55;;;;;;;2.40;49.86;100593.92;1702041;82;21020;-63
2022/01/16 09:53:29;;;;;;;5.73;1.53;;;;;;;2.37;50.04;100591.05;1712600;82;21052;-64
2022/01/16 09:55:55;;;;;;;;;;;;;;;2.40;50.41;100602.64;1711892;82;21075;-65
2022/01/16 09:58:21;;;;;;;4.23;0.77;;;;;;;2.42;50.69;100601.20;1707539;82;20153;-66
2022/01/16 10:00:51;;;;;;;1.87;0.65;;;;;;;2.38;50.50;100603.26;1652134;85;21090;-63
2022/01/16 10:03:38;;;;;;;4.80;0.97;;;;;;;2.38;50.53;100600.63;1719060;82;20968;-65
2022/01/16 10:06:15;;;;;;;2.13;1.30;;;;;;;2.37;50.55;100598.12;1698716;82;21048;-66
2022/01/16 10:08:44;;;;;;;2.62;0.90;;;;;;;2.31;50.55;100597.66;1685774;83;21124;-64
2022/01/16 10:11:39;;;;;;;1.87;0.77;;;;;;;2.28;50.09;100587.88;1714995;82;21028;-66
2022/01/16 10:14:15;;;;;;;2.93;0.80;;;;;;;2.21;49.50;100592.83;1667441;84;21058;-62
2022/01/16 10:16:40;;;;;;;5.47;1.12;;;;;;;2.11;49.26;100596.71;1706112;82;21029;-64
2022/01/16 10:19:27;;;;;;;2.70;0.50;;;;;;;2.02;49.48;100590.89;1703606;82;20962;-64
2022/01/16 10:22:07;;;;;;;6.10;0.83;;;;;;;2.00;49.59;100590.65;1650608;85;21073;-64
2022/01/16 10:24:35;;;;;;;2.23;0.73;;;;;;;1.98;49.66;100592.12;1714240;82;21026;-64
2022/01/16 10:27:14;;;;;;;2.47;0.60;;;;;;;2.02;49.54;100589.58;1715038;82;21509;-66
2022/01/16 10:29:51;;;;;;;2.67;1.33;;;;;;;2.05;49.17;100582.73;1713988;82;21088;-62
2022/01/16 10:32:27;;;;;;;1.57;0.77;;;;;;;2.03;49.33;100579.41;1698461;82;21101;-69
2022/01/16 10:35:14;;;;;;;2.97;0.93;;;;;;;2.05;49.25;100589.31;1710866;82;21039;-65
2022/01/16 10:37:46;;;;;;;0.93;0.30;;;;;;;2.10;49.19;100587.62;1705660;82;21027;-62
2022/01/16 10:40:18;;;;;;;2.10;0.73;;;;;;;2.16;49.06;100585.80;1693649;82;21016;-65
2022/01/16 10:42:54;;;;;;;1.63;0.50;;;;;;;2.18;48.65;100585.19;1697616;82;20993;-63
2022/01/16 10:45:27;;;;;;;1.53;0.77;;;;;;;2.19;48.82;100587.36;1691611;82;21489;-70
2022/01/16 10:47:59;;;;;;;6.03;0.40;;;;;;;2.21;48.74;100578.86;1710821;82;20986;-66
2022/01/16 10:50:38;;;;;;;2.17;0.60;;;;;;;2.22;48.42;100590.53;1677567;83;21540;-70
2022/01/16 10:53:15;;;;;;;2.73;0.43;;;;;;;2.21;48.43;100590.20;1705479;83;20965;-62
2022/01/16 10:55:47;;;;;;;;;;;;;;;2.16;48.06;100582.34;1712683;82;21092;-65
2022/01/16 10:58:19;;;;;;;2.57;0.40;;;;;;;2.07;48.32;100590.05;1712855;82;20440;-65
2022/01/16 11:01:03;;;;;;;1.43;0.50;;;;;;;2.01;48.79;100581.33;1712923;82;21086;-67
2022/01/16 11:03:39;;;;;;;2.30;0.90;;;;;;;2.05;48.75;100587.17;1703611;82;21407;-65
2022/01/16 11:06:06;;;;;;;2.90;0.78;;;;;;;2.06;48.72;100573.90;1711520;82;21160;-64
2022/01/16 11:08:35;;;;;;;1.83;0.80;;;;;;;2.05;49.09;100580.11;1717069;82;21104;-65
2022/01/16 11:11:01;;;;;;;2.57;0.73;;;;;;;2.03;48.64;100583.34;1706020;82;21024;-64
2022/01/16 11:13:32;;;;;;;1.55;0.65;;;;;;;2.05;48.39;100582.73;1701842;82;21156;-68
2022/01/16 11:16:03;;;;;;;2.70;0.77;;;;;;;2.05;48.59;100580.11;1719076;82;21513;-65
2022/01/16 11:18:35;;;;;;;1.57;0.37;;;;;;;2.02;48.67;100580.38;1718518;82;21021;-64
2022/01/16 11:21:14;;;;;;;1.80;0.57;;;;;;;2.04;48.67;100586.34;1718886;82;21471;-63
2022/01/16 11:23:46;;;;;;;0.67;0.30;;;;;;;2.06;48.60;100571.27;1700392;82;20989;-63
2022/01/16 11:26:05;;;;;;;0.77;0.17;;;;;;;2.08;48.95;100576.41;1685772;83;21051;-63
2022/01/16 11:28:33;;;;;;;3.03;0.40;;;;;;;2.08;48.96;100574.60;1702870;82;21111;-65
2022/01/16 11:31:04;;;;;;;1.07;0.37;;;;;;;2.11;49.69;100573.50;1709283;82;21031;-64
2022/01/16 11:33:33;;;;;;;1.63;0.43;;;;;;;2.11;49.18;100565.61;1706595;83;21016;-65
2022/01/16 11:36:16;;;;;;;3.60;0.50;;;;;;;2.11;49.36;100565.16;1680772;83;21002;-63
2022/01/16 11:38:51;;;;;;;1.20;0.57;;;;;;;2.17;49.66;100559.01;1713570;82;21061;-67
2022/01/16 11:41:35;;;;;;;4.63;0.60;;;;;;;2.21;49.51;100565.70;1715038;82;21165;-67
2022/01/16 11:44:05;;;;;;;1.60;0.67;;;;;;;2.19;49.30;100553.99;1709173;82;21488;-64
2022/01/16 11:46:34;;;;;;;2.47;0.63;;;;;;;2.19;49.32;100559.25;1719000;82;21485;-64
2022/01/16 11:49:05;;;;;;;1.57;1.10;;;;;;;2.17;49.69;100566.44;1715208;82;21049;-65
2022/01/16 11:51:40;;;;;;;6.00;1.50;;;;;;;2.17;49.73;100559.01;1704820;82;21034;-63
2022/01/16 11:54:28;;;;;;;2.87;1.90;;;;;;;2.11;50.03;100553.32;1715833;83;21148;-63
2022/01/16 11:57:02;;;;;;;3.77;2.43;;;;;;;2.08;50.35;100558.83;1718195;82;20973;-65
2022/01/16 11:59:37;;;;;;;5.87;3.67;;;;;;;2.00;50.34;100559.95;1719255;82;21104;-67
2022/01/16 12:02:12;;;;;;;8.17;2.50;;;;;;;1.94;50.47;100563.07;1707552;82;21534;-63
2022/01/16 12:04:47;;;;;;;4.40;2.25;;;;;;;1.91;50.69;100554.97;1711222;82;21501;-63
2022/01/16 12:07:22;;;;;;;4.23;1.93;;;;;;;1.92;50.46;100562.36;1713408;82;21033;-62
2022/01/16 12:09:57;;;;;;;1.70;0.60;;;;;;;1.93;50.32;100566.67;1716816;82;21120;-65
2022/01/16 12:12:26;;;;;;;1.90;0.60;;;;;;;1.94;49.72;100564.38;1717432;82;21060;-63
2022/01/16 12:15:09;;;;;;;1.73;0.67;;;;;;;1.93;49.79;100566.19;1715908;82;21175;-63
2022/01/16 12:17:45;;;;;;;4.23;0.93;;;;;;;1.93;49.74;100570.62;1716796;82;20992;-65
2022/01/16 12:20:17;;;;;;;2.70;0.50;;;;;;;1.91;49.33;100562.03;1715683;83;21042;-64
2022/01/16 12:23:00;;;;;;;0.90;0.47;;;;;;;1.89;49.37;100563.95;1700906;82;21072;-63
2022/01/16 12:25:37;;;;;;;2.13;0.73;;;;;;;1.89;49.35;100563.95;1718280;82;21529;-65